sensor_id;sensor_type;location;lat;lon;timestamp;pressure;altitude;pressure_sealevel;temperature;humidity
26839;BME280;40088;51.214;6.786;2023-02-12T00:07:06;103505.41;;;16.72;48.68
26839;BME280;40088;51.214;6.786;2023-02-12T00:17:07;103496.25;;;16.71;48.54
26839;BME280;40088;51.214;6.786;2023-02-12T00:27:07;103496.38;;;16.70;48.52
26839;BME280;40088;51.214;6.786;2023-02-12T00:37:07;103498.09;;;16.71;48.48
26839;BME280;40088;51.214;6.786;2023-02-12T00:47:08;103495.34;;;16.71;48.60
26839;BME280;40088;51.214;6.786;2023-02-12T00:57:09;103497.25;;;16.70;48.74
26839;BME280;40088;51.214;6.786;2023-02-12T01:07:10;103498.09;;;16.71;48.71
26839;BME280;40088;51.214;6.786;2023-02-12T01:17:10;103496.38;;;16.70;48.70
26839;BME280;40088;51.214;6.786;2023-02-12T01:27:10;103487.09;;;16.71;48.56
26839;BME280;40088;51.214;6.786;2023-02-12T01:37:11;103490.84;;;16.70;48.66
26839;BME280;40088;51.214;6.786;2023-02-12T01:47:16;103485.34;;;16.70;48.82
26839;BME280;40088;51.214;6.786;2023-02-12T01:57:17;103483.56;;;16.68;48.56
26839;BME280;40088;51.214;6.786;2023-02-12T02:07:18;103474.34;;;16.70;48.81
26839;BME280;40088;51.214;6.786;2023-02-12T02:28:19;103472.56;;;16.68;48.69
26839;BME280;40088;51.214;6.786;2023-02-12T02:38:43;103467.94;;;16.69;48.62
26839;BME280;40088;51.214;6.786;2023-02-12T02:48:51;103466.19;;;16.68;48.64
26839;BME280;40088;51.214;6.786;2023-02-12T02:59:03;103466.19;;;16.68;48.60
26839;BME280;40088;51.214;6.786;2023-02-12T03:09:21;103468.94;;;16.68;48.87
26839;BME280;40088;51.214;6.786;2023-02-12T03:19:25;103462.56;;;16.67;48.70
26839;BME280;40088;51.214;6.786;2023-02-12T03:29:28;103459.81;;;16.67;48.71
26839;BME280;40088;51.214;6.786;2023-02-12T03:49:48;103457.06;;;16.67;48.67
26839;BME280;40088;51.214;6.786;2023-02-12T03:59:51;103464.31;;;16.68;48.70
26839;BME280;40088;51.214;6.786;2023-02-12T04:09:51;103461.53;;;16.68;48.77
26839;BME280;40088;51.214;6.786;2023-02-12T04:30:22;103481.69;;;16.69;48.74
26839;BME280;40088;51.214;6.786;2023-02-12T04:40:25;103492.72;;;16.69;49.01
26839;BME280;40088;51.214;6.786;2023-02-12T04:50:26;103500.09;;;16.68;48.86
26839;BME280;40088;51.214;6.786;2023-02-12T05:00:31;103500.09;;;16.68;48.77
26839;BME280;40088;51.214;6.786;2023-02-12T05:10:31;103494.59;;;16.68;48.79
26839;BME280;40088;51.214;6.786;2023-02-12T05:20:31;103502.75;;;16.70;48.81
26839;BME280;40088;51.214;6.786;2023-02-12T05:30:32;103505.59;;;16.68;48.93
26839;BME280;40088;51.214;6.786;2023-02-12T05:40:32;103508.34;;;16.68;48.56
26839;BME280;40088;51.214;6.786;2023-02-12T05:50:33;103518.38;;;16.70;48.67
26839;BME280;40088;51.214;6.786;2023-02-12T06:00:33;103521.25;;;16.68;48.86
26839;BME280;40088;51.214;6.786;2023-02-12T06:10:34;103529.41;;;16.70;49.01
26839;BME280;40088;51.214;6.786;2023-02-12T06:20:34;103531.25;;;16.69;48.87
26839;BME280;40088;51.214;6.786;2023-02-12T06:30:34;103523.00;;;16.69;48.85
26839;BME280;40088;51.214;6.786;2023-02-12T06:40:34;103533.03;;;16.70;48.91
26839;BME280;40088;51.214;6.786;2023-02-12T06:50:35;103529.41;;;16.70;48.89
26839;BME280;40088;51.214;6.786;2023-02-12T07:00:35;103545.94;;;16.70;48.85
26839;BME280;40088;51.214;6.786;2023-02-12T07:10:35;103559.69;;;16.70;48.96
26839;BME280;40088;51.214;6.786;2023-02-12T07:20:36;103565.19;;;16.70;49.00
26839;BME280;40088;51.214;6.786;2023-02-12T07:30:36;103556.94;;;16.70;48.98
26839;BME280;40088;51.214;6.786;2023-02-12T07:40:37;103573.47;;;16.70;49.07
26839;BME280;40088;51.214;6.786;2023-02-12T07:50:37;103574.34;;;16.70;48.90
26839;BME280;40088;51.214;6.786;2023-02-12T08:00:37;103585.34;;;16.70;48.85
26839;BME280;40088;51.214;6.786;2023-02-12T08:10:37;103589.97;;;16.70;49.09
26839;BME280;40088;51.214;6.786;2023-02-12T08:20:38;103597.22;;;16.71;48.91
26839;BME280;40088;51.214;6.786;2023-02-12T08:30:38;103594.47;;;16.71;49.06
26839;BME280;40088;51.214;6.786;2023-02-12T08:40:38;103606.41;;;16.71;49.12
26839;BME280;40088;51.214;6.786;2023-02-12T08:50:38;103605.50;;;16.71;49.13
26839;BME280;40088;51.214;6.786;2023-02-12T09:00:39;103610.03;;;16.72;48.99
26839;BME280;40088;51.214;6.786;2023-02-12T09:10:41;103613.66;;;16.72;49.06
26839;BME280;40088;51.214;6.786;2023-02-12T09:20:43;103611.78;;;16.73;49.15
26839;BME280;40088;51.214;6.786;2023-02-12T09:30:43;103611.00;;;16.71;49.17
26839;BME280;40088;51.214;6.786;2023-02-12T09:51:05;103621.03;;;16.72;49.17
26839;BME280;40088;51.214;6.786;2023-02-12T10:01:11;103617.28;;;16.73;49.13
26839;BME280;40088;51.214;6.786;2023-02-12T10:31:54;103631.19;;;16.71;49.48
26839;BME280;40088;51.214;6.786;2023-02-12T10:52:14;103619.25;;;16.71;49.28
26839;BME280;40088;51.214;6.786;2023-02-12T11:02:21;103617.41;;;16.71;49.22
26839;BME280;40088;51.214;6.786;2023-02-12T11:12:32;103603.50;;;16.73;49.37
26839;BME280;40088;51.214;6.786;2023-02-12T11:22:35;103602.50;;;16.74;49.29
26839;BME280;40088;51.214;6.786;2023-02-12T11:32:37;103592.50;;;16.73;49.11
26839;BME280;40088;51.214;6.786;2023-02-12T11:42:37;103582.50;;;16.72;49.22
26839;BME280;40088;51.214;6.786;2023-02-12T11:52:41;103581.47;;;16.73;49.27
26839;BME280;40088;51.214;6.786;2023-02-12T12:02:47;103573.22;;;16.73;49.23
26839;BME280;40088;51.214;6.786;2023-02-12T12:12:55;103555.81;;;16.72;49.35
26839;BME280;40088;51.214;6.786;2023-02-12T12:23:31;103555.69;;;16.74;49.14
26839;BME280;40088;51.214;6.786;2023-02-12T13:25:20;103481.47;;;16.72;49.44
26839;BME280;40088;51.214;6.786;2023-02-12T13:35:23;103480.38;;;16.75;49.37
26839;BME280;40088;51.214;6.786;2023-02-12T13:45:37;103479.47;;;16.74;49.26
26839;BME280;40088;51.214;6.786;2023-02-12T14:16:35;103462.06;;;16.74;49.45
26839;BME280;40088;51.214;6.786;2023-02-12T14:26:37;103462.84;;;16.76;49.24
26839;BME280;40088;51.214;6.786;2023-02-12T14:36:40;103464.72;;;16.75;49.33
26839;BME280;40088;51.214;6.786;2023-02-12T14:46:46;103461.19;;;16.73;49.19
26839;BME280;40088;51.214;6.786;2023-02-12T14:56:48;103464.81;;;16.74;49.47
26839;BME280;40088;51.214;6.786;2023-02-12T15:07:00;103464.72;;;16.75;49.46
26839;BME280;40088;51.214;6.786;2023-02-12T15:17:14;103446.41;;;16.74;49.34
26839;BME280;40088;51.214;6.786;2023-02-12T15:27:19;103445.56;;;16.74;49.49
26839;BME280;40088;51.214;6.786;2023-02-12T15:37:26;103436.41;;;16.73;49.53
26839;BME280;40088;51.214;6.786;2023-02-12T15:47:27;103424.28;;;16.76;49.47
26839;BME280;40088;51.214;6.786;2023-02-12T15:57:27;103429.78;;;16.76;49.37
26839;BME280;40088;51.214;6.786;2023-02-12T16:07:30;103422.41;;;16.76;49.49
26839;BME280;40088;51.214;6.786;2023-02-12T16:17:35;103424.16;;;16.77;49.46
26839;BME280;40088;51.214;6.786;2023-02-12T16:27:36;103425.03;;;16.78;49.40
26839;BME280;40088;51.214;6.786;2023-02-12T16:47:36;103429.66;;;16.77;49.51
26839;BME280;40088;51.214;6.786;2023-02-12T16:57:37;103427.78;;;16.78;49.49
26839;BME280;40088;51.214;6.786;2023-02-12T17:07:37;103438.78;;;16.78;49.50
26839;BME280;40088;51.214;6.786;2023-02-12T17:17:37;103437.91;;;16.77;49.51
26839;BME280;40088;51.214;6.786;2023-02-12T17:27:37;103443.28;;;16.79;49.49
26839;BME280;40088;51.214;6.786;2023-02-12T17:37:40;103449.81;;;16.78;49.51
26839;BME280;40088;51.214;6.786;2023-02-12T17:47:40;103448.53;;;16.82;49.47
26839;BME280;40088;51.214;6.786;2023-02-12T17:57:41;103450.69;;;16.78;49.62
26839;BME280;40088;51.214;6.786;2023-02-12T18:07:41;103451.81;;;16.76;49.52
26839;BME280;40088;51.214;6.786;2023-02-12T18:17:41;103450.06;;;16.75;49.73
26839;BME280;40088;51.214;6.786;2023-02-12T18:27:42;103444.44;;;16.76;49.71
26839;BME280;40088;51.214;6.786;2023-02-12T18:37:42;103437.91;;;16.77;49.55
26839;BME280;40088;51.214;6.786;2023-02-12T18:47:51;103438.06;;;16.76;49.52
26839;BME280;40088;51.214;6.786;2023-02-12T18:57:52;103444.44;;;16.76;49.59
26839;BME280;40088;51.214;6.786;2023-02-12T19:07:52;103446.19;;;16.77;49.42
26839;BME280;40088;51.214;6.786;2023-02-12T19:17:53;103444.28;;;16.78;49.67
26839;BME280;40088;51.214;6.786;2023-02-12T19:27:54;103436.19;;;16.76;49.62
26839;BME280;40088;51.214;6.786;2023-02-12T19:37:54;103433.41;;;16.76;49.67
26839;BME280;40088;51.214;6.786;2023-02-12T19:47:54;103432.41;;;16.77;49.69
26839;BME280;40088;51.214;6.786;2023-02-12T19:57:55;103426.91;;;16.77;49.63
26839;BME280;40088;51.214;6.786;2023-02-12T20:07:55;103428.66;;;16.78;49.79
26839;BME280;40088;51.214;6.786;2023-02-12T20:17:55;103425.03;;;16.78;49.81
26839;BME280;40088;51.214;6.786;2023-02-12T20:27:56;103423.13;;;16.78;49.59
26839;BME280;40088;51.214;6.786;2023-02-12T20:37:57;103428.66;;;16.78;49.77
26839;BME280;40088;51.214;6.786;2023-02-12T20:47:57;103426.75;;;16.79;49.80
26839;BME280;40088;51.214;6.786;2023-02-12T20:57:57;103423.13;;;16.78;49.79
26839;BME280;40088;51.214;6.786;2023-02-12T21:07:57;103424.00;;;16.79;49.60
26839;BME280;40088;51.214;6.786;2023-02-12T21:17:58;103429.41;;;16.80;49.65
26839;BME280;40088;51.214;6.786;2023-02-12T21:27:58;103424.88;;;16.79;49.86
26839;BME280;40088;51.214;6.786;2023-02-12T21:37:58;103425.88;;;16.78;49.76
26839;BME280;40088;51.214;6.786;2023-02-12T21:47:58;103442.28;;;16.80;49.87
26839;BME280;40088;51.214;6.786;2023-02-12T21:57:59;103443.28;;;16.79;49.60
26839;BME280;40088;51.214;6.786;2023-02-12T22:08:00;103431.16;;;16.81;49.87
26839;BME280;40088;51.214;6.786;2023-02-12T22:18:00;103420.25;;;16.80;49.73
26839;BME280;40088;51.214;6.786;2023-02-12T22:28:01;103411.09;;;16.79;49.79
26839;BME280;40088;51.214;6.786;2023-02-12T22:38:01;103420.25;;;16.80;49.88
26839;BME280;40088;51.214;6.786;2023-02-12T22:48:01;103429.28;;;16.82;49.74
26839;BME280;40088;51.214;6.786;2023-02-12T22:58:02;103425.75;;;16.80;49.87
26839;BME280;40088;51.214;6.786;2023-02-12T23:08:04;103432.28;;;16.79;50.03
26839;BME280;40088;51.214;6.786;2023-02-12T23:18:04;103441.41;;;16.79;49.77
26839;BME280;40088;51.214;6.786;2023-02-12T23:28:04;103441.41;;;16.79;49.96
26839;BME280;40088;51.214;6.786;2023-02-12T23:38:05;103424.88;;;16.79;49.79
26839;BME280;40088;51.214;6.786;2023-02-12T23:48:05;103418.63;;;16.77;50.04
26839;BME280;40088;51.214;6.786;2023-02-12T23:58:06;103414.00;;;16.78;49.78
